Time;durP1;ratioP1;P1;durP2;ratioP2;P2;SDS_P1;SDS_P2;PMS_P1;PMS_P2;Temp;Humidity;BMP_temperature;BMP_pressure;BME280_temperature;BME280_humidity;BME280_pressure;Samples;Min_cycle;Max_cycle;Signal;HPM_P1;HPM_P2
2023/05/12 00:01:22;;;;;;;13.23;12.52;;;;;;;;;;5031581;28;20524;-62
2023/05/12 00:03:47;;;;;;;12.60;11.90;;;;;;;;;;5030784;28;20180;-61
2023/05/12 00:06:13;;;;;;;12.52;11.90;;;;;;;;;;5032286;28;20022;-61
2023/05/12 00:08:38;;;;;;;11.77;11.18;;;;;;;;;;5023942;28;20025;-62
2023/05/12 00:11:03;;;;;;;13.82;13.02;;;;;;;;;;5030410;28;20025;-61
2023/05/12 00:13:28;;;;;;;12.30;11.70;;;;;;;;;;5024425;28;20095;-61
2023/05/12 00:15:57;;;;;;;12.85;12.15;;;;;;;;;;5025775;28;20036;-61
2023/05/12 00:18:23;;;;;;;12.60;11.95;;;;;;;;;;5024263;28;20030;-61
2023/05/12 00:20:48;;;;;;;13.48;12.70;;;;;;;;;;5025553;28;20052;-61
2023/05/12 00:23:14;;;;;;;13.90;13.10;;;;;;;;;;5027955;28;20101;-60
2023/05/12 00:25:39;;;;;;;12.52;11.90;;;;;;;;;;5032699;28;20057;-61
2023/05/12 00:28:04;;;;;;;13.15;12.45;;;;;;;;;;5024694;28;20013;-61
2023/05/12 00:30:30;;;;;;;12.68;11.98;;;;;;;;;;5036936;28;20079;-60
2023/05/12 00:32:55;;;;;;;12.20;11.60;;;;;;;;;;5034500;28;20485;-60
2023/05/12 00:35:20;;;;;;;12.57;11.95;;;;;;;;;;5023739;28;20046;-60
2023/05/12 00:37:46;;;;;;;12.30;11.70;;;;;;;;;;5032247;28;20026;-60
2023/05/12 00:40:11;;;;;;;12.52;11.93;;;;;;;;;;5036481;28;20052;-61
2023/05/12 00:42:36;;;;;;;13.23;12.52;;;;;;;;;;5031576;28;20021;-60
2023/05/12 00:45:03;;;;;;;12.95;12.25;;;;;;;;;;5035087;28;20040;-62
2023/05/12 00:47:29;;;;;;;13.18;12.48;;;;;;;;;;5040384;28;20497;-60
2023/05/12 00:49:54;;;;;;;12.85;12.15;;;;;;;;;;5032891;28;20070;-62
2023/05/12 00:52:20;;;;;;;12.80;12.10;;;;;;;;;;5034985;28;20075;-60
2023/05/12 00:54:45;;;;;;;12.40;11.80;;;;;;;;;;5033296;28;20029;-62
2023/05/12 00:57:11;;;;;;;12.93;12.23;;;;;;;;;;5027925;28;20159;-62
2023/05/12 00:59:36;;;;;;;12.30;11.70;;;;;;;;;;5035106;28;20040;-61
2023/05/12 01:02:02;;;;;;;12.38;11.77;;;;;;;;;;5034111;28;20049;-62
2023/05/12 01:04:28;;;;;;;12.82;12.13;;;;;;;;;;5032051;28;20025;-62
2023/05/12 01:06:53;;;;;;;12.60;11.90;;;;;;;;;;5031300;28;20037;-61
2023/05/12 01:09:19;;;;;;;12.90;12.20;;;;;;;;;;5035726;28;20025;-61
2023/05/12 01:11:44;;;;;;;12.70;12.00;;;;;;;;;;5038898;28;20630;-61
2023/05/12 01:14:10;;;;;;;13.20;12.50;;;;;;;;;;5030875;28;20031;-61
2023/05/12 01:16:37;;;;;;;13.20;12.50;;;;;;;;;;5037482;28;20044;-61
2023/05/12 01:19:05;;;;;;;13.10;12.40;;;;;;;;;;5035459;28;20025;-61
2023/05/12 01:21:30;;;;;;;13.32;12.60;;;;;;;;;;5035167;28;20029;-62
2023/05/12 01:23:57;;;;;;;12.85;12.15;;;;;;;;;;5034806;28;20013;-61
2023/05/12 01:26:23;;;;;;;12.93;12.23;;;;;;;;;;5031229;28;20104;-62
2023/05/12 01:28:49;;;;;;;13.23;12.52;;;;;;;;;;5032734;28;20180;-60
2023/05/12 01:31:15;;;;;;;12.73;12.02;;;;;;;;;;5031382;28;20565;-60
2023/05/12 01:33:40;;;;;;;12.50;11.90;;;;;;;;;;5023979;28;20108;-61
2023/05/12 01:36:06;;;;;;;12.32;11.73;;;;;;;;;;5030835;28;20029;-61
2023/05/12 01:38:31;;;;;;;12.65;12.02;;;;;;;;;;5026870;28;20025;-61
2023/05/12 01:40:56;;;;;;;12.82;12.13;;;;;;;;;;5030033;28;20053;-61
2023/05/12 01:43:22;;;;;;;12.40;11.80;;;;;;;;;;5027150;28;20037;-61
2023/05/12 01:45:47;;;;;;;13.27;12.55;;;;;;;;;;5026933;28;20017;-61
2023/05/12 01:48:12;;;;;;;12.90;12.20;;;;;;;;;;5038644;28;20160;-61
2023/05/12 01:50:38;;;;;;;12.50;11.90;;;;;;;;;;5038880;28;20017;-61
2023/05/12 01:53:03;;;;;;;12.38;11.77;;;;;;;;;;5032834;28;20407;-61
2023/05/12 01:55:28;;;;;;;12.40;11.80;;;;;;;;;;5032336;28;20445;-61
2023/05/12 01:57:54;;;;;;;12.80;12.10;;;;;;;;;;5034605;28;20029;-61
2023/05/12 02:00:20;;;;;;;13.00;12.30;;;;;;;;;;5032500;28;20018;-61
2023/05/12 02:02:45;;;;;;;13.52;12.75;;;;;;;;;;5035625;28;20041;-60
2023/05/12 02:05:11;;;;;;;13.13;12.43;;;;;;;;;;5032072;28;20018;-61
2023/05/12 02:07:36;;;;;;;13.32;12.60;;;;;;;;;;5033260;28;20022;-61
2023/05/12 02:10:02;;;;;;;13.07;12.38;;;;;;;;;;5028673;28;20076;-60
2023/05/12 02:12:27;;;;;;;13.07;12.38;;;;;;;;;;5031478;28;20017;-61
2023/05/12 02:14:53;;;;;;;13.02;12.32;;;;;;;;;;5027288;28;20052;-60
2023/05/12 02:17:18;;;;;;;12.57;11.98;;;;;;;;;;5028431;28;20051;-60
2023/05/12 02:19:43;;;;;;;12.70;12.02;;;;;;;;;;5033531;28;20029;-61
2023/05/12 02:22:09;;;;;;;12.60;12.00;;;;;;;;;;5023816;28;20026;-61
2023/05/12 02:24:34;;;;;;;12.15;11.55;;;;;;;;;;5031878;28;20027;-61
2023/05/12 02:26:59;;;;;;;12.60;12.00;;;;;;;;;;5025066;28;21714;-61
2023/05/12 02:29:24;;;;;;;12.55;11.93;;;;;;;;;;5026669;28;20064;-61
2023/05/12 02:31:50;;;;;;;12.50;11.90;;;;;;;;;;5033513;28;20021;-60
2023/05/12 02:34:15;;;;;;;13.80;13.00;;;;;;;;;;5032703;28;20022;-61
2023/05/12 02:36:40;;;;;;;13.20;12.50;;;;;;;;;;5030855;28;20072;-61
2023/05/12 02:39:06;;;;;;;13.10;12.40;;;;;;;;;;5031164;28;20032;-60
2023/05/12 02:41:32;;;;;;;13.10;12.40;;;;;;;;;;5033616;28;20128;-61
2023/05/12 02:43:57;;;;;;;13.40;12.68;;;;;;;;;;5030462;28;20424;-61
2023/05/12 02:46:23;;;;;;;12.52;11.93;;;;;;;;;;5038509;28;20036;-61
2023/05/12 02:48:48;;;;;;;12.85;12.15;;;;;;;;;;5028303;28;20385;-60
2023/05/12 02:51:13;;;;;;;12.98;12.27;;;;;;;;;;5035151;28;20032;-60
2023/05/12 02:53:39;;;;;;;12.95;12.25;;;;;;;;;;5034611;28;20480;-60
2023/05/12 02:56:05;;;;;;;11.40;10.90;;;;;;;;;;5027424;28;20517;-59
2023/05/12 02:58:30;;;;;;;11.82;11.23;;;;;;;;;;5028888;28;20683;-62
2023/05/12 03:00:56;;;;;;;11.90;11.30;;;;;;;;;;5031280;28;20046;-61
2023/05/12 03:03:21;;;;;;;12.88;12.18;;;;;;;;;;5026000;28;20013;-60
2023/05/12 03:05:47;;;;;;;13.70;12.90;;;;;;;;;;5027409;28;20436;-61
2023/05/12 03:08:12;;;;;;;12.85;12.15;;;;;;;;;;5030456;28;20022;-61
2023/05/12 03:10:38;;;;;;;12.68;11.98;;;;;;;;;;5035957;28;20066;-62
2023/05/12 03:13:03;;;;;;;12.10;11.50;;;;;;;;;;5028944;28;20025;-60
2023/05/12 03:15:28;;;;;;;12.07;11.48;;;;;;;;;;5033448;28;20044;-61
2023/05/12 03:17:54;;;;;;;12.40;11.80;;;;;;;;;;5029181;28;20052;-60
2023/05/12 03:20:19;;;;;;;12.52;11.93;;;;;;;;;;5026540;28;20013;-61
2023/05/12 03:22:44;;;;;;;12.45;11.85;;;;;;;;;;5030210;28;20117;-61
2023/05/12 03:25:10;;;;;;;12.68;12.07;;;;;;;;;;5029928;28;20109;-61
2023/05/12 03:27:35;;;;;;;12.00;11.40;;;;;;;;;;5023382;28;20022;-61
2023/05/12 03:30:01;;;;;;;12.48;11.88;;;;;;;;;;5025447;28;20021;-61
2023/05/12 03:32:27;;;;;;;12.93;12.25;;;;;;;;;;5027020;28;20163;-61
2023/05/12 03:34:52;;;;;;;12.50;11.90;;;;;;;;;;5032248;28;20180;-61
2023/05/12 03:37:18;;;;;;;13.43;12.73;;;;;;;;;;5036620;28;20124;-61
2023/05/12 03:39:43;;;;;;;12.23;11.63;;;;;;;;;;5021146;28;20029;-60
2023/05/12 03:42:08;;;;;;;12.57;11.98;;;;;;;;;;5032013;28;20044;-61
2023/05/12 03:44:33;;;;;;;12.48;11.88;;;;;;;;;;5028687;28;20025;-61
2023/05/12 03:46:59;;;;;;;13.90;13.20;;;;;;;;;;5031986;28;20039;-60
2023/05/12 03:49:24;;;;;;;12.55;11.95;;;;;;;;;;5034563;28;20026;-61
2023/05/12 03:51:49;;;;;;;13.00;12.38;;;;;;;;;;5033893;28;20030;-61
2023/05/12 03:54:15;;;;;;;13.70;13.00;;;;;;;;;;5025717;28;20021;-60
2023/05/12 03:56:40;;;;;;;12.70;12.10;;;;;;;;;;5030761;28;20397;-61
2023/05/12 03:59:05;;;;;;;12.25;11.65;;;;;;;;;;5032256;28;20026;-62
2023/05/12 04:01:31;;;;;;;13.32;12.73;;;;;;;;;;5029637;28;20080;-62
2023/05/12 04:03:56;;;;;;;12.27;11.68;;;;;;;;;;5024935;28;20380;-62
2023/05/12 04:06:21;;;;;;;12.77;12.17;;;;;;;;;;5028167;28;20021;-61
2023/05/12 04:08:46;;;;;;;12.73;12.13;;;;;;;;;;5028678;28;20263;-61
2023/05/12 04:11:12;;;;;;;11.95;11.45;;;;;;;;;;5028692;28;20533;-62
2023/05/12 04:13:38;;;;;;;12.05;11.55;;;;;;;;;;5029908;28;20396;-62
2023/05/12 04:16:04;;;;;;;12.65;12.05;;;;;;;;;;5025066;28;20037;-61
2023/05/12 04:18:29;;;;;;;12.80;12.20;;;;;;;;;;5029659;28;20037;-60
2023/05/12 04:20:54;;;;;;;12.55;11.95;;;;;;;;;;5035104;28;20037;-61
2023/05/12 04:23:20;;;;;;;13.13;12.52;;;;;;;;;;5027713;28;20033;-60
2023/05/12 04:25:45;;;;;;;12.70;12.10;;;;;;;;;;5030591;28;20531;-60
2023/05/12 04:28:11;;;;;;;12.30;11.77;;;;;;;;;;5026982;28;20030;-61
2023/05/12 04:30:40;;;;;;;12.15;11.65;;;;;;;;;;5028634;28;20030;-61
2023/05/12 04:33:06;;;;;;;12.80;12.20;;;;;;;;;;5025897;28;20473;-60
2023/05/12 04:35:31;;;;;;;13.48;12.88;;;;;;;;;;5027483;28;20037;-60
2023/05/12 04:37:56;;;;;;;13.20;12.60;;;;;;;;;;5028508;28;20350;-61
2023/05/12 04:40:22;;;;;;;13.20;12.60;;;;;;;;;;5022015;28;20029;-61
2023/05/12 04:42:47;;;;;;;12.75;12.15;;;;;;;;;;5024079;28;20029;-61
2023/05/12 04:45:12;;;;;;;12.63;12.02;;;;;;;;;;5024688;28;20021;-60
2023/05/12 04:47:38;;;;;;;12.63;12.02;;;;;;;;;;5021031;28;20017;-60
2023/05/12 04:50:04;;;;;;;12.73;12.13;;;;;;;;;;5024964;28;20025;-60
2023/05/12 04:52:30;;;;;;;12.40;11.80;;;;;;;;;;5026972;28;20555;-59
2023/05/12 04:54:55;;;;;;;12.68;12.07;;;;;;;;;;5024041;28;20025;-61
2023/05/12 04:57:20;;;;;;;13.25;12.65;;;;;;;;;;5028693;28;20013;-60
2023/05/12 04:59:46;;;;;;;13.05;12.45;;;;;;;;;;5026316;28;20048;-60
2023/05/12 05:02:12;;;;;;;13.35;12.75;;;;;;;;;;5018688;28;20627;-60
2023/05/12 05:04:37;;;;;;;12.70;12.10;;;;;;;;;;5021517;28;20116;-60
2023/05/12 05:07:03;;;;;;;12.20;11.68;;;;;;;;;;5024229;28;20027;-60
2023/05/12 05:09:29;;;;;;;12.48;11.88;;;;;;;;;;5028752;28;20484;-60
2023/05/12 05:11:55;;;;;;;12.93;12.32;;;;;;;;;;5027461;28;20361;-61
2023/05/12 05:14:20;;;;;;;12.70;12.10;;;;;;;;;;5026251;28;20023;-61
2023/05/12 05:16:47;;;;;;;13.02;12.43;;;;;;;;;;5031814;28;20023;-62
2023/05/12 05:19:12;;;;;;;12.88;12.27;;;;;;;;;;5034416;28;20037;-60
2023/05/12 05:21:38;;;;;;;13.75;13.15;;;;;;;;;;5029871;28;20040;-61
2023/05/12 05:24:03;;;;;;;13.23;12.63;;;;;;;;;;5025359;28;20376;-60
2023/05/12 05:26:28;;;;;;;12.82;12.23;;;;;;;;;;5024581;28;20033;-61
2023/05/12 05:28:54;;;;;;;12.70;12.10;;;;;;;;;;5028280;28;20022;-61
2023/05/12 05:31:19;;;;;;;12.85;12.25;;;;;;;;;;5022860;28;20286;-62
2023/05/12 05:33:45;;;;;;;12.55;11.95;;;;;;;;;;5031513;28;20036;-62
2023/05/12 05:36:10;;;;;;;12.77;12.18;;;;;;;;;;5025676;28;20087;-61
2023/05/12 05:38:35;;;;;;;13.00;12.40;;;;;;;;;;5027521;28;20124;-59
2023/05/12 05:41:01;;;;;;;12.98;12.38;;;;;;;;;;5030701;28;21444;-61
2023/05/12 05:43:26;;;;;;;12.95;12.35;;;;;;;;;;5033321;28;20037;-62
2023/05/12 05:45:52;;;;;;;12.88;12.27;;;;;;;;;;5027330;28;20030;-61
2023/05/12 05:48:17;;;;;;;13.32;12.73;;;;;;;;;;5030141;28;20014;-61
2023/05/12 05:50:43;;;;;;;12.85;12.25;;;;;;;;;;5035288;28;20024;-60
2023/05/12 05:53:08;;;;;;;12.68;12.07;;;;;;;;;;5030187;28;20025;-61
2023/05/12 05:55:33;;;;;;;13.00;12.40;;;;;;;;;;5029029;28;20018;-61
2023/05/12 05:57:59;;;;;;;12.82;12.23;;;;;;;;;;5032986;28;20526;-61
2023/05/12 06:00:24;;;;;;;12.70;12.10;;;;;;;;;;5028736;28;20485;-61
2023/05/12 06:02:49;;;;;;;13.02;12.43;;;;;;;;;;5031045;28;20060;-62
2023/05/12 06:05:16;;;;;;;12.20;11.70;;;;;;;;;;5029352;28;20044;-62
2023/05/12 06:07:42;;;;;;;12.60;12.00;;;;;;;;;;5031123;28;20044;-61
2023/05/12 06:10:07;;;;;;;13.23;12.63;;;;;;;;;;5028152;28;20029;-61
2023/05/12 06:12:33;;;;;;;13.18;12.57;;;;;;;;;;5030480;28;20039;-61
2023/05/12 06:14:58;;;;;;;13.15;12.55;;;;;;;;;;5026309;28;20033;-61
2023/05/12 06:17:23;;;;;;;13.10;12.50;;;;;;;;;;5026940;28;20032;-61
2023/05/12 06:19:49;;;;;;;12.88;12.27;;;;;;;;;;5021133;28;20278;-62
2023/05/12 06:22:14;;;;;;;13.18;12.57;;;;;;;;;;5027129;28;20116;-62
2023/05/12 06:24:41;;;;;;;12.00;11.50;;;;;;;;;;5031511;28;20034;-63
2023/05/12 06:27:06;;;;;;;12.95;12.35;;;;;;;;;;5028419;28;20283;-63
2023/05/12 06:29:31;;;;;;;13.00;12.40;;;;;;;;;;5027531;28;21123;-63
2023/05/12 06:31:57;;;;;;;12.23;11.70;;;;;;;;;;5026117;28;20033;-67
2023/05/12 06:34:22;;;;;;;13.00;12.40;;;;;;;;;;5025063;28;20025;-65
2023/05/12 06:36:47;;;;;;;12.65;12.05;;;;;;;;;;5022527;28;20379;-66
2023/05/12 06:39:13;;;;;;;13.05;12.45;;;;;;;;;;5024843;28;20033;-66
2023/05/12 06:41:38;;;;;;;13.00;12.40;;;;;;;;;;5029672;28;20043;-66
2023/05/12 06:44:05;;;;;;;13.63;13.02;;;;;;;;;;5025361;28;20604;-65
2023/05/12 06:46:31;;;;;;;14.32;13.63;;;;;;;;;;5023110;28;20017;-62
2023/05/12 06:48:56;;;;;;;13.73;13.13;;;;;;;;;;5021887;28;20036;-63
2023/05/12 06:51:21;;;;;;;13.63;13.02;;;;;;;;;;5028976;28;20036;-64
2023/05/12 06:53:46;;;;;;;14.18;13.48;;;;;;;;;;5026846;28;20045;-62
2023/05/12 06:56:15;;;;;;;14.00;13.30;;;;;;;;;;5020111;28;20044;-63
2023/05/12 06:58:41;;;;;;;13.23;12.63;;;;;;;;;;5025703;28;20379;-61
2023/05/12 07:01:06;;;;;;;13.60;13.00;;;;;;;;;;5025333;28;20077;-62
2023/05/12 07:03:32;;;;;;;13.10;12.50;;;;;;;;;;5028079;28;20029;-62
2023/05/12 07:05:57;;;;;;;13.40;12.80;;;;;;;;;;5028884;28;20025;-61
2023/05/12 07:08:23;;;;;;;12.90;12.30;;;;;;;;;;5023976;28;20109;-63
2023/05/12 07:10:48;;;;;;;12.97;12.37;;;;;;;;;;5032070;28;20024;-62
2023/05/12 07:13:13;;;;;;;12.88;12.27;;;;;;;;;;5025443;28;20809;-65
2023/05/12 07:15:38;;;;;;;13.48;12.88;;;;;;;;;;5034071;28;20439;-62
2023/05/12 07:18:04;;;;;;;12.85;12.25;;;;;;;;;;5033415;28;20036;-61
2023/05/12 07:20:29;;;;;;;12.98;12.38;;;;;;;;;;5026289;28;20057;-61
2023/05/12 07:22:55;;;;;;;12.85;12.25;;;;;;;;;;5024754;28;20025;-62
2023/05/12 07:25:20;;;;;;;12.80;12.20;;;;;;;;;;5024999;28;20079;-62
2023/05/12 07:27:46;;;;;;;12.90;12.30;;;;;;;;;;5026353;28;20155;-62
2023/05/12 07:30:11;;;;;;;12.18;11.63;;;;;;;;;;5022954;28;20059;-62
2023/05/12 07:32:36;;;;;;;13.27;12.68;;;;;;;;;;5023919;28;20469;-64
2023/05/12 07:35:02;;;;;;;13.23;12.63;;;;;;;;;;5026407;28;20021;-63
2023/05/12 07:37:28;;;;;;;13.95;13.27;;;;;;;;;;5026649;28;20472;-63
2023/05/12 07:39:54;;;;;;;13.43;12.82;;;;;;;;;;5020902;28;20669;-64
2023/05/12 07:42:19;;;;;;;13.27;12.68;;;;;;;;;;5029269;28;20135;-65
2023/05/12 07:44:46;;;;;;;12.65;12.05;;;;;;;;;;5022988;28;20025;-61
2023/05/12 07:47:11;;;;;;;13.52;12.93;;;;;;;;;;5025886;28;20025;-64
2023/05/12 07:49:36;;;;;;;13.10;12.50;;;;;;;;;;5027286;28;20032;-63
2023/05/12 07:52:02;;;;;;;13.70;13.00;;;;;;;;;;5029156;28;20108;-64
2023/05/12 07:54:27;;;;;;;13.98;13.27;;;;;;;;;;5023710;28;20025;-64
2023/05/12 07:56:52;;;;;;;13.07;12.47;;;;;;;;;;5029279;28;20061;-62
2023/05/12 07:59:18;;;;;;;14.07;13.38;;;;;;;;;;5024245;28;20286;-63
2023/05/12 08:01:43;;;;;;;15.13;14.32;;;;;;;;;;5024065;28;20060;-61
2023/05/12 08:04:08;;;;;;;14.85;14.05;;;;;;;;;;5023846;28;21022;-63
2023/05/12 08:06:33;;;;;;;15.60;14.70;;;;;;;;;;5022201;28;20104;-61
2023/05/12 08:08:59;;;;;;;15.70;14.80;;;;;;;;;;5026872;28;20036;-62
2023/05/12 08:11:25;;;;;;;14.52;13.73;;;;;;;;;;5026650;28;20017;-63
2023/05/12 08:13:50;;;;;;;14.38;13.57;;;;;;;;;;5018274;28;20041;-63
2023/05/12 08:16:16;;;;;;;13.80;13.07;;;;;;;;;;5020113;28;20072;-63
2023/05/12 08:18:41;;;;;;;14.82;14.02;;;;;;;;;;5020240;28;20087;-65
2023/05/12 08:21:06;;;;;;;14.30;13.50;;;;;;;;;;5025785;28;20487;-63
2023/05/12 08:23:32;;;;;;;15.43;14.52;;;;;;;;;;5016755;28;20038;-62
2023/05/12 08:25:57;;;;;;;15.43;14.52;;;;;;;;;;5021110;28;20401;-62
2023/05/12 08:28:22;;;;;;;15.20;14.30;;;;;;;;;;5024168;28;20030;-62
2023/05/12 08:30:48;;;;;;;14.15;13.35;;;;;;;;;;5024426;28;20501;-64
2023/05/12 08:33:13;;;;;;;13.82;13.05;;;;;;;;;;5026431;28;20052;-63
2023/05/12 08:35:38;;;;;;;15.38;14.48;;;;;;;;;;5021141;28;20026;-62
2023/05/12 08:38:04;;;;;;;14.15;13.35;;;;;;;;;;5026712;28;20409;-62
2023/05/12 08:40:32;;;;;;;15.02;14.13;;;;;;;;;;5021158;28;20040;-61
2023/05/12 08:43:10;;;;;;;13.50;12.77;;;;;;;;;;5021603;28;20037;-63
2023/05/12 08:45:36;;;;;;;14.50;13.70;;;;;;;;;;5027318;28;20030;-62
2023/05/12 08:48:03;;;;;;;14.40;13.60;;;;;;;;;;5023475;28;20036;-62
2023/05/12 08:50:29;;;;;;;13.43;12.73;;;;;;;;;;5024703;28;20017;-63
2023/05/12 08:52:55;;;;;;;15.32;14.43;;;;;;;;;;5030280;28;20078;-66
2023/05/12 08:55:20;;;;;;;15.23;14.32;;;;;;;;;;5031660;28;20020;-65
2023/05/12 08:57:47;;;;;;;15.43;14.52;;;;;;;;;;5026129;28;20032;-63
2023/05/12 09:00:13;;;;;;;13.73;13.00;;;;;;;;;;5022643;28;20911;-61
2023/05/12 09:02:41;;;;;;;13.00;12.30;;;;;;;;;;5021511;28;20109;-61
2023/05/12 09:05:08;;;;;;;13.93;13.13;;;;;;;;;;5023056;28;20017;-61
2023/05/12 09:07:35;;;;;;;13.45;12.75;;;;;;;;;;5033824;28;20045;-62
2023/05/12 09:10:02;;;;;;;14.80;13.90;;;;;;;;;;5027827;28;20368;-63
2023/05/12 09:12:30;;;;;;;14.48;13.68;;;;;;;;;;5024099;28;20025;-62
2023/05/12 09:15:02;;;;;;;14.00;13.20;;;;;;;;;;5023318;28;20692;-61
2023/05/12 09:17:28;;;;;;;13.85;13.05;;;;;;;;;;5027285;28;20097;-61
2023/05/12 09:19:53;;;;;;;13.75;12.95;;;;;;;;;;5027321;28;20848;-62
2023/05/12 09:22:26;;;;;;;14.25;13.45;;;;;;;;;;5028409;28;20517;-63
2023/05/12 09:24:52;;;;;;;13.57;12.88;;;;;;;;;;5025260;28;20022;-62
2023/05/12 09:27:22;;;;;;;14.05;13.25;;;;;;;;;;5020564;28;20068;-60
2023/05/12 09:29:48;;;;;;;14.07;13.27;;;;;;;;;;5026376;28;20070;-60
2023/05/12 09:32:13;;;;;;;13.13;12.45;;;;;;;;;;5026569;28;20029;-63
2023/05/12 09:34:39;;;;;;;13.77;13.07;;;;;;;;;;5024028;28;20029;-62
2023/05/12 09:37:05;;;;;;;14.85;14.02;;;;;;;;;;5028795;28;20495;-63
2023/05/12 09:39:32;;;;;;;14.73;13.93;;;;;;;;;;5025998;28;20033;-62
2023/05/12 09:41:57;;;;;;;14.15;13.35;;;;;;;;;;5029791;28;20061;-63
2023/05/12 09:44:23;;;;;;;14.00;13.23;;;;;;;;;;5024782;28;20056;-63
2023/05/12 09:46:50;;;;;;;14.23;13.43;;;;;;;;;;5028736;28;20060;-63
2023/05/12 09:49:23;;;;;;;14.00;13.20;;;;;;;;;;5031122;28;20030;-63
2023/05/12 09:51:55;;;;;;;13.82;13.13;;;;;;;;;;5021739;28;20388;-62
2023/05/12 09:54:25;;;;;;;14.32;13.52;;;;;;;;;;5034150;28;20100;-62
2023/05/12 09:56:51;;;;;;;13.25;12.55;;;;;;;;;;5027819;28;20041;-62
2023/05/12 09:59:17;;;;;;;13.18;12.48;;;;;;;;;;5031737;28;20021;-63
2023/05/12 10:01:44;;;;;;;14.00;13.23;;;;;;;;;;5029537;28;20436;-63
2023/05/12 10:04:10;;;;;;;14.25;13.45;;;;;;;;;;5024176;28;20058;-64
2023/05/12 10:06:41;;;;;;;13.20;12.50;;;;;;;;;;5028482;28;20524;-63
2023/05/12 10:09:13;;;;;;;13.43;12.73;;;;;;;;;;5025197;28;20045;-62
2023/05/12 10:11:39;;;;;;;13.93;13.20;;;;;;;;;;5031405;28;20028;-61
2023/05/12 10:14:06;;;;;;;13.85;13.15;;;;;;;;;;5024626;28;20373;-62
2023/05/12 10:16:32;;;;;;;14.77;13.98;;;;;;;;;;5026616;28;20028;-64
2023/05/12 10:18:57;;;;;;;14.75;13.95;;;;;;;;;;5033762;28;20039;-62
2023/05/12 10:21:26;;;;;;;13.98;13.27;;;;;;;;;;5025636;28;20128;-64
2023/05/12 10:23:53;;;;;;;13.52;12.82;;;;;;;;;;5029166;28;20017;-63
2023/05/12 10:26:18;;;;;;;14.63;13.82;;;;;;;;;;5029859;28;20051;-63
2023/05/12 10:28:44;;;;;;;15.43;14.52;;;;;;;;;;5024617;28;20018;-63
2023/05/12 10:31:10;;;;;;;14.30;13.50;;;;;;;;;;5023127;28;20374;-63
2023/05/12 10:33:35;;;;;;;14.40;13.60;;;;;;;;;;5031638;28;20025;-61
2023/05/12 10:36:00;;;;;;;13.93;13.23;;;;;;;;;;5030562;28;20033;-61
2023/05/12 10:38:33;;;;;;;13.60;12.90;;;;;;;;;;5024340;28;20115;-62
2023/05/12 10:41:00;;;;;;;13.73;13.02;;;;;;;;;;5020990;28;20025;-61
2023/05/12 10:43:26;;;;;;;14.77;13.98;;;;;;;;;;5028663;28;20168;-70
2023/05/12 10:46:10;;;;;;;13.52;12.82;;;;;;;;;;5030137;28;20028;-61
2023/05/12 10:48:37;;;;;;;13.70;13.00;;;;;;;;;;5026043;28;20036;-63
2023/05/12 10:51:06;;;;;;;14.50;13.70;;;;;;;;;;5027685;28;20029;-63
2023/05/12 10:53:32;;;;;;;14.38;13.57;;;;;;;;;;5031491;28;20049;-64
2023/05/12 10:56:01;;;;;;;13.93;13.18;;;;;;;;;;5027721;28;20030;-62
2023/05/12 10:58:27;;;;;;;13.57;12.88;;;;;;;;;;5029547;28;20028;-64
2023/05/12 11:00:53;;;;;;;13.88;13.18;;;;;;;;;;5027943;28;20029;-63
2023/05/12 11:03:22;;;;;;;14.43;13.63;;;;;;;;;;5033356;28;20112;-64
2023/05/12 11:05:57;;;;;;;14.63;13.82;;;;;;;;;;5025464;28;20777;-64
2023/05/12 11:08:23;;;;;;;15.15;14.27;;;;;;;;;;5024748;28;20029;-65
2023/05/12 11:10:49;;;;;;;13.88;13.15;;;;;;;;;;5027649;28;20021;-65
2023/05/12 11:13:16;;;;;;;15.00;14.18;;;;;;;;;;5028119;28;20086;-65
2023/05/12 11:15:43;;;;;;;13.38;12.68;;;;;;;;;;5023965;28;20017;-65
2023/05/12 11:18:08;;;;;;;14.60;13.80;;;;;;;;;;5025884;28;20086;-65
2023/05/12 11:20:33;;;;;;;13.57;12.88;;;;;;;;;;5028621;28;20480;-65
2023/05/12 11:22:59;;;;;;;13.43;12.73;;;;;;;;;;5029200;28;20033;-65
2023/05/12 11:25:27;;;;;;;13.93;13.23;;;;;;;;;;5025559;28;20030;-65
2023/05/12 11:27:52;;;;;;;14.07;13.30;;;;;;;;;;5019474;28;20512;-65
2023/05/12 11:30:18;;;;;;;13.68;12.98;;;;;;;;;;5029583;28;20026;-65
2023/05/12 11:32:44;;;;;;;14.48;13.68;;;;;;;;;;5023004;28;20048;-64
2023/05/12 11:35:10;;;;;;;15.88;14.98;;;;;;;;;;5027883;28;20029;-64
2023/05/12 11:37:37;;;;;;;13.82;13.13;;;;;;;;;;5026415;28;20444;-60
2023/05/12 11:40:10;;;;;;;13.45;12.75;;;;;;;;;;5026435;28;20029;-69
2023/05/12 11:42:36;;;;;;;13.25;12.55;;;;;;;;;;5029419;28;20029;-60
2023/05/12 11:45:03;;;;;;;12.23;11.63;;;;;;;;;;5026188;28;20620;-62
2023/05/12 11:47:28;;;;;;;13.18;12.48;;;;;;;;;;5039905;28;20049;-62
2023/05/12 11:49:54;;;;;;;14.07;13.27;;;;;;;;;;5035862;28;20029;-62
2023/05/12 11:52:20;;;;;;;13.60;12.90;;;;;;;;;;5038067;28;20060;-62
2023/05/12 11:54:50;;;;;;;12.10;11.50;;;;;;;;;;5039327;28;20010;-63
2023/05/12 11:57:28;;;;;;;12.82;12.13;;;;;;;;;;5034437;28;20014;-62
2023/05/12 11:59:58;;;;;;;12.38;11.77;;;;;;;;;;5036378;28;20033;-62
2023/05/12 12:02:25;;;;;;;13.15;12.45;;;;;;;;;;5039680;28;20045;-61
2023/05/12 12:04:50;;;;;;;13.07;12.38;;;;;;;;;;5036905;28;20025;-62
2023/05/12 12:07:16;;;;;;;13.65;12.95;;;;;;;;;;5040360;28;20017;-62
2023/05/12 12:09:41;;;;;;;11.65;11.10;;;;;;;;;;5045822;28;20024;-62
2023/05/12 12:12:08;;;;;;;12.45;11.85;;;;;;;;;;5038966;28;20013;-62
2023/05/12 12:14:34;;;;;;;12.98;12.32;;;;;;;;;;5043931;28;20009;-62
2023/05/12 12:17:00;;;;;;;12.20;11.60;;;;;;;;;;5033890;28;20082;-62
2023/05/12 12:19:26;;;;;;;12.07;11.48;;;;;;;;;;5030973;28;20681;-62
2023/05/12 12:21:52;;;;;;;12.10;11.50;;;;;;;;;;5040877;28;20104;-63
2023/05/12 12:24:17;;;;;;;12.38;11.77;;;;;;;;;;5043564;28;20159;-61
2023/05/12 12:26:42;;;;;;;12.25;11.65;;;;;;;;;;5036677;28;20389;-62
2023/05/12 12:29:08;;;;;;;12.95;12.25;;;;;;;;;;5020338;28;20393;-62
2023/05/12 12:31:35;;;;;;;13.05;12.35;;;;;;;;;;5034547;28;20480;-62
2023/05/12 12:34:01;;;;;;;12.77;12.18;;;;;;;;;;5033293;28;20097;-61
2023/05/12 12:36:27;;;;;;;12.77;12.15;;;;;;;;;;5043304;28;20022;-61
2023/05/12 12:38:52;;;;;;;12.60;12.00;;;;;;;;;;5035405;28;20068;-61
2023/05/12 12:41:17;;;;;;;12.60;12.00;;;;;;;;;;5042075;28;20013;-61
2023/05/12 12:43:43;;;;;;;12.32;11.73;;;;;;;;;;5030722;28;20064;-60
2023/05/12 12:46:08;;;;;;;11.93;11.32;;;;;;;;;;5042361;28;20021;-62
2023/05/12 12:48:34;;;;;;;12.15;11.55;;;;;;;;;;5041738;28;20024;-61
2023/05/12 12:51:00;;;;;;;12.20;11.60;;;;;;;;;;5039814;28;20017;-62
2023/05/12 12:53:25;;;;;;;12.80;12.20;;;;;;;;;;5044940;28;20017;-61
2023/05/12 12:55:50;;;;;;;12.10;11.50;;;;;;;;;;5046798;28;20024;-62
2023/05/12 12:58:16;;;;;;;12.52;11.93;;;;;;;;;;5033789;28;20104;-62
2023/05/12 13:00:42;;;;;;;12.88;12.27;;;;;;;;;;5041450;28;20105;-63
2023/05/12 13:03:07;;;;;;;13.15;12.45;;;;;;;;;;5033555;28;20704;-62
2023/05/12 13:05:32;;;;;;;12.38;11.77;;;;;;;;;;5029392;28;20032;-62
2023/05/12 13:07:58;;;;;;;12.68;12.07;;;;;;;;;;5048188;28;20506;-62
2023/05/12 13:10:24;;;;;;;12.65;12.05;;;;;;;;;;5044329;28;20055;-62
2023/05/12 13:12:49;;;;;;;12.10;11.50;;;;;;;;;;5039097;28;20021;-62
2023/05/12 13:15:16;;;;;;;13.70;13.00;;;;;;;;;;5039002;28;20022;-59
2023/05/12 13:17:41;;;;;;;12.45;11.85;;;;;;;;;;5031169;28;20026;-62
2023/05/12 13:20:07;;;;;;;12.88;12.25;;;;;;;;;;5036607;28;20024;-61
2023/05/12 13:22:33;;;;;;;12.32;11.73;;;;;;;;;;5030304;28;20052;-63
2023/05/12 13:24:58;;;;;;;13.35;12.65;;;;;;;;;;5031464;28;20049;-63
2023/05/12 13:27:24;;;;;;;12.80;12.20;;;;;;;;;;5028505;28;20026;-62
2023/05/12 13:29:49;;;;;;;13.43;12.73;;;;;;;;;;5042306;28;20063;-62
2023/05/12 13:32:15;;;;;;;12.68;12.07;;;;;;;;;;5041409;28;20032;-61
2023/05/12 13:34:40;;;;;;;12.60;12.00;;;;;;;;;;5050068;28;20032;-62
2023/05/12 13:37:06;;;;;;;12.65;12.05;;;;;;;;;;5036294;28;20025;-63
2023/05/12 13:39:31;;;;;;;12.77;12.18;;;;;;;;;;5047740;28;20021;-63
2023/05/12 13:41:57;;;;;;;12.63;12.02;;;;;;;;;;5037286;28;20056;-63
2023/05/12 13:44:22;;;;;;;12.68;12.07;;;;;;;;;;5036419;28;20024;-62
2023/05/12 13:46:47;;;;;;;11.93;11.32;;;;;;;;;;5042507;28;20041;-62
2023/05/12 13:49:13;;;;;;;11.88;11.32;;;;;;;;;;5032983;28;20468;-62
2023/05/12 13:51:38;;;;;;;13.20;12.50;;;;;;;;;;5031805;28;20017;-63
2023/05/12 13:54:03;;;;;;;12.40;11.80;;;;;;;;;;5033894;28;20021;-63
2023/05/12 13:56:29;;;;;;;12.10;11.50;;;;;;;;;;5033424;28;20101;-63
2023/05/12 13:58:54;;;;;;;11.88;11.30;;;;;;;;;;5031282;28;20385;-62
2023/05/12 14:01:19;;;;;;;12.40;11.80;;;;;;;;;;5033700;28;20041;-61
2023/05/12 14:03:46;;;;;;;12.10;11.50;;;;;;;;;;5034871;28;20022;-62
2023/05/12 14:06:11;;;;;;;11.80;11.25;;;;;;;;;;5032596;28;20017;-61
2023/05/12 14:08:36;;;;;;;12.15;11.55;;;;;;;;;;5034046;28;20044;-62